sensor_id;sensor_type;location;lat;lon;timestamp;P1;durP1;ratioP1;P2;durP2;ratioP2
32872;SDS011;19224;52.462;16.898;2023-01-29T00:01:04;10.27;;;5.30;;
32872;SDS011;19224;52.462;16.898;2023-01-29T00:03:37;10.50;;;5.20;;
32872;SDS011;19224;52.462;16.898;2023-01-29T00:06:08;11.13;;;5.40;;
32872;SDS011;19224;52.462;16.898;2023-01-29T00:08:39;10.53;;;5.47;;
32872;SDS011;19224;52.462;16.898;2023-01-29T00:11:10;12.60;;;6.23;;
32872;SDS011;19224;52.462;16.898;2023-01-29T00:13:41;13.58;;;7.03;;
32872;SDS011;19224;52.462;16.898;2023-01-29T00:16:12;11.13;;;5.40;;
32872;SDS011;19224;52.462;16.898;2023-01-29T00:18:43;12.77;;;5.83;;
32872;SDS011;19224;52.462;16.898;2023-01-29T00:21:17;14.50;;;5.78;;
32872;SDS011;19224;52.462;16.898;2023-01-29T00:23:49;8.83;;;5.17;;
32872;SDS011;19224;52.462;16.898;2023-01-29T00:26:22;17.67;;;8.53;;
32872;SDS011;19224;52.462;16.898;2023-01-29T00:28:52;18.60;;;8.67;;
32872;SDS011;19224;52.462;16.898;2023-01-29T00:31:30;19.53;;;9.33;;
32872;SDS011;19224;52.462;16.898;2023-01-29T00:34:00;17.07;;;8.75;;
32872;SDS011;19224;52.462;16.898;2023-01-29T00:36:31;13.30;;;7.37;;
32872;SDS011;19224;52.462;16.898;2023-01-29T00:39:01;8.57;;;4.93;;
32872;SDS011;19224;52.462;16.898;2023-01-29T00:41:34;10.23;;;5.63;;
32872;SDS011;19224;52.462;16.898;2023-01-29T00:44:24;9.85;;;4.95;;
32872;SDS011;19224;52.462;16.898;2023-01-29T00:47:15;11.43;;;5.03;;
32872;SDS011;19224;52.462;16.898;2023-01-29T00:50:03;10.33;;;5.67;;
32872;SDS011;19224;52.462;16.898;2023-01-29T00:52:36;11.60;;;5.43;;
32872;SDS011;19224;52.462;16.898;2023-01-29T00:55:10;11.23;;;4.93;;
32872;SDS011;19224;52.462;16.898;2023-01-29T00:57:41;10.10;;;5.03;;
32872;SDS011;19224;52.462;16.898;2023-01-29T01:00:13;11.30;;;4.80;;
32872;SDS011;19224;52.462;16.898;2023-01-29T01:02:46;13.50;;;4.80;;
32872;SDS011;19224;52.462;16.898;2023-01-29T01:05:37;11.07;;;4.70;;
32872;SDS011;19224;52.462;16.898;2023-01-29T01:08:09;11.97;;;5.20;;
32872;SDS011;19224;52.462;16.898;2023-01-29T01:10:58;9.80;;;5.60;;
32872;SDS011;19224;52.462;16.898;2023-01-29T01:13:33;10.33;;;5.33;;
32872;SDS011;19224;52.462;16.898;2023-01-29T01:16:10;8.70;;;4.67;;
32872;SDS011;19224;52.462;16.898;2023-01-29T01:18:43;11.73;;;4.93;;
32872;SDS011;19224;52.462;16.898;2023-01-29T01:21:14;10.73;;;5.00;;
32872;SDS011;19224;52.462;16.898;2023-01-29T01:23:45;7.93;;;4.57;;
32872;SDS011;19224;52.462;16.898;2023-01-29T01:26:17;9.30;;;4.67;;
32872;SDS011;19224;52.462;16.898;2023-01-29T01:28:48;9.50;;;5.17;;
32872;SDS011;19224;52.462;16.898;2023-01-29T01:31:20;11.20;;;4.70;;
32872;SDS011;19224;52.462;16.898;2023-01-29T01:33:50;13.97;;;5.20;;
32872;SDS011;19224;52.462;16.898;2023-01-29T01:36:22;10.63;;;5.17;;
32872;SDS011;19224;52.462;16.898;2023-01-29T01:38:53;13.00;;;5.13;;
32872;SDS011;19224;52.462;16.898;2023-01-29T01:41:23;11.07;;;5.60;;
32872;SDS011;19224;52.462;16.898;2023-01-29T01:43:58;12.77;;;5.43;;
32872;SDS011;19224;52.462;16.898;2023-01-29T01:46:34;11.93;;;4.93;;
32872;SDS011;19224;52.462;16.898;2023-01-29T01:49:11;12.83;;;6.23;;
32872;SDS011;19224;52.462;16.898;2023-01-29T01:51:44;15.23;;;6.60;;
32872;SDS011;19224;52.462;16.898;2023-01-29T01:54:18;23.80;;;11.00;;
32872;SDS011;19224;52.462;16.898;2023-01-29T01:56:55;21.73;;;10.03;;
32872;SDS011;19224;52.462;16.898;2023-01-29T01:59:30;22.73;;;9.30;;
32872;SDS011;19224;52.462;16.898;2023-01-29T02:02:02;18.30;;;8.60;;
32872;SDS011;19224;52.462;16.898;2023-01-29T02:04:53;12.23;;;6.03;;
32872;SDS011;19224;52.462;16.898;2023-01-29T02:07:42;10.33;;;5.90;;
32872;SDS011;19224;52.462;16.898;2023-01-29T02:10:41;10.83;;;5.60;;
32872;SDS011;19224;52.462;16.898;2023-01-29T02:13:11;15.07;;;6.30;;
32872;SDS011;19224;52.462;16.898;2023-01-29T02:15:45;9.80;;;5.90;;
32872;SDS011;19224;52.462;16.898;2023-01-29T02:18:16;11.50;;;6.20;;
32872;SDS011;19224;52.462;16.898;2023-01-29T02:21:08;12.97;;;6.43;;
32872;SDS011;19224;52.462;16.898;2023-01-29T02:26:49;12.43;;;6.33;;
32872;SDS011;19224;52.462;16.898;2023-01-29T02:35:09;10.70;;;5.97;;
32872;SDS011;19224;52.462;16.898;2023-01-29T02:40:48;12.23;;;5.70;;
32872;SDS011;19224;52.462;16.898;2023-01-29T02:52:07;10.47;;;5.57;;
32872;SDS011;19224;52.462;16.898;2023-01-29T02:55:15;9.60;;;5.50;;
32872;SDS011;19224;52.462;16.898;2023-01-29T02:57:48;10.13;;;5.33;;
32872;SDS011;19224;52.462;16.898;2023-01-29T03:00:24;10.53;;;4.80;;
32872;SDS011;19224;52.462;16.898;2023-01-29T03:03:09;10.70;;;5.10;;
32872;SDS011;19224;52.462;16.898;2023-01-29T03:05:52;9.33;;;5.17;;
32872;SDS011;19224;52.462;16.898;2023-01-29T03:08:34;7.57;;;4.60;;
32872;SDS011;19224;52.462;16.898;2023-01-29T03:11:12;11.30;;;5.03;;
32872;SDS011;19224;52.462;16.898;2023-01-29T03:16:30;9.10;;;4.60;;
32872;SDS011;19224;52.462;16.898;2023-01-29T03:19:04;7.53;;;4.53;;
32872;SDS011;19224;52.462;16.898;2023-01-29T03:21:56;9.93;;;4.57;;
32872;SDS011;19224;52.462;16.898;2023-01-29T03:24:34;11.33;;;5.57;;
32872;SDS011;19224;52.462;16.898;2023-01-29T03:27:35;14.13;;;6.90;;
32872;SDS011;19224;52.462;16.898;2023-01-29T03:30:35;8.80;;;5.07;;
32872;SDS011;19224;52.462;16.898;2023-01-29T03:33:26;12.33;;;5.07;;
32872;SDS011;19224;52.462;16.898;2023-01-29T03:36:04;8.63;;;4.13;;
32872;SDS011;19224;52.462;16.898;2023-01-29T03:38:39;8.20;;;4.30;;
32872;SDS011;19224;52.462;16.898;2023-01-29T03:41:27;6.93;;;3.87;;
32872;SDS011;19224;52.462;16.898;2023-01-29T03:49:34;8.37;;;4.43;;
32872;SDS011;19224;52.462;16.898;2023-01-29T03:52:41;8.13;;;3.80;;
32872;SDS011;19224;52.462;16.898;2023-01-29T03:55:34;9.47;;;4.37;;
32872;SDS011;19224;52.462;16.898;2023-01-29T04:01:01;7.37;;;3.70;;
32872;SDS011;19224;52.462;16.898;2023-01-29T04:03:46;7.43;;;4.17;;
32872;SDS011;19224;52.462;16.898;2023-01-29T04:06:21;9.20;;;5.33;;
32872;SDS011;19224;52.462;16.898;2023-01-29T04:09:03;10.93;;;5.70;;
32872;SDS011;19224;52.462;16.898;2023-01-29T04:11:50;11.63;;;6.00;;
32872;SDS011;19224;52.462;16.898;2023-01-29T04:14:30;9.67;;;5.20;;
32872;SDS011;19224;52.462;16.898;2023-01-29T04:17:11;9.23;;;4.97;;
32872;SDS011;19224;52.462;16.898;2023-01-29T04:19:46;7.80;;;4.33;;
32872;SDS011;19224;52.462;16.898;2023-01-29T04:22:25;10.47;;;5.00;;
32872;SDS011;19224;52.462;16.898;2023-01-29T04:25:08;10.63;;;5.07;;
32872;SDS011;19224;52.462;16.898;2023-01-29T04:36:29;10.13;;;4.57;;
32872;SDS011;19224;52.462;16.898;2023-01-29T04:39:39;7.30;;;4.30;;
32872;SDS011;19224;52.462;16.898;2023-01-29T04:45:30;10.47;;;5.30;;
32872;SDS011;19224;52.462;16.898;2023-01-29T04:48:20;17.57;;;6.20;;
32872;SDS011;19224;52.462;16.898;2023-01-29T04:51:03;9.60;;;4.70;;
32872;SDS011;19224;52.462;16.898;2023-01-29T04:54:11;10.67;;;5.30;;
32872;SDS011;19224;52.462;16.898;2023-01-29T04:57:04;7.50;;;4.70;;
32872;SDS011;19224;52.462;16.898;2023-01-29T04:59:29;9.47;;;4.63;;
32872;SDS011;19224;52.462;16.898;2023-01-29T05:02:02;9.67;;;4.87;;
32872;SDS011;19224;52.462;16.898;2023-01-29T05:04:36;7.73;;;5.13;;
32872;SDS011;19224;52.462;16.898;2023-01-29T05:07:10;10.87;;;5.33;;
32872;SDS011;19224;52.462;16.898;2023-01-29T05:09:44;9.13;;;4.80;;
32872;SDS011;19224;52.462;16.898;2023-01-29T05:12:16;10.10;;;5.10;;
32872;SDS011;19224;52.462;16.898;2023-01-29T05:14:47;11.17;;;5.60;;
32872;SDS011;19224;52.462;16.898;2023-01-29T05:17:20;12.60;;;5.33;;
32872;SDS011;19224;52.462;16.898;2023-01-29T05:19:52;9.13;;;5.03;;
32872;SDS011;19224;52.462;16.898;2023-01-29T05:22:24;8.80;;;5.20;;
32872;SDS011;19224;52.462;16.898;2023-01-29T05:24:57;9.73;;;5.20;;
32872;SDS011;19224;52.462;16.898;2023-01-29T05:27:33;10.33;;;5.43;;
32872;SDS011;19224;52.462;16.898;2023-01-29T05:30:19;15.20;;;6.00;;
32872;SDS011;19224;52.462;16.898;2023-01-29T05:32:50;11.00;;;6.13;;
32872;SDS011;19224;52.462;16.898;2023-01-29T05:35:23;10.87;;;5.70;;
32872;SDS011;19224;52.462;16.898;2023-01-29T05:37:55;9.40;;;5.80;;
32872;SDS011;19224;52.462;16.898;2023-01-29T05:40:26;10.63;;;5.93;;
32872;SDS011;19224;52.462;16.898;2023-01-29T05:42:56;11.07;;;5.47;;
32872;SDS011;19224;52.462;16.898;2023-01-29T05:45:27;10.73;;;5.77;;
32872;SDS011;19224;52.462;16.898;2023-01-29T05:47:58;15.43;;;6.13;;
32872;SDS011;19224;52.462;16.898;2023-01-29T05:50:29;9.70;;;5.37;;
32872;SDS011;19224;52.462;16.898;2023-01-29T05:53:00;12.73;;;6.80;;
32872;SDS011;19224;52.462;16.898;2023-01-29T05:55:32;17.10;;;8.93;;
32872;SDS011;19224;52.462;16.898;2023-01-29T05:58:02;11.65;;;6.40;;
32872;SDS011;19224;52.462;16.898;2023-01-29T06:00:33;10.60;;;6.17;;
32872;SDS011;19224;52.462;16.898;2023-01-29T06:03:03;12.00;;;7.33;;
32872;SDS011;19224;52.462;16.898;2023-01-29T06:05:37;13.20;;;6.83;;
32872;SDS011;19224;52.462;16.898;2023-01-29T06:08:08;13.57;;;7.77;;
32872;SDS011;19224;52.462;16.898;2023-01-29T06:10:40;19.57;;;9.20;;
32872;SDS011;19224;52.462;16.898;2023-01-29T06:13:10;16.43;;;10.27;;
32872;SDS011;19224;52.462;16.898;2023-01-29T06:15:41;14.73;;;7.77;;
32872;SDS011;19224;52.462;16.898;2023-01-29T06:18:11;22.37;;;9.93;;
32872;SDS011;19224;52.462;16.898;2023-01-29T06:20:42;34.10;;;13.80;;
32872;SDS011;19224;52.462;16.898;2023-01-29T06:23:12;51.87;;;21.93;;
32872;SDS011;19224;52.462;16.898;2023-01-29T06:25:43;37.13;;;16.50;;
32872;SDS011;19224;52.462;16.898;2023-01-29T06:28:13;40.43;;;19.17;;
32872;SDS011;19224;52.462;16.898;2023-01-29T06:30:44;26.47;;;12.90;;
32872;SDS011;19224;52.462;16.898;2023-01-29T06:33:15;24.20;;;12.53;;
32872;SDS011;19224;52.462;16.898;2023-01-29T06:35:45;24.97;;;10.20;;
32872;SDS011;19224;52.462;16.898;2023-01-29T06:38:15;18.53;;;10.17;;
32872;SDS011;19224;52.462;16.898;2023-01-29T06:40:46;15.20;;;9.07;;
32872;SDS011;19224;52.462;16.898;2023-01-29T06:43:17;13.20;;;8.17;;
32872;SDS011;19224;52.462;16.898;2023-01-29T06:48:22;17.37;;;8.63;;
32872;SDS011;19224;52.462;16.898;2023-01-29T06:50:53;13.60;;;8.10;;
32872;SDS011;19224;52.462;16.898;2023-01-29T06:53:24;15.30;;;7.60;;
32872;SDS011;19224;52.462;16.898;2023-01-29T06:55:54;14.10;;;8.20;;
32872;SDS011;19224;52.462;16.898;2023-01-29T06:58:25;14.10;;;7.80;;
32872;SDS011;19224;52.462;16.898;2023-01-29T07:01:03;13.63;;;7.97;;
32872;SDS011;19224;52.462;16.898;2023-01-29T07:03:35;16.03;;;7.90;;
32872;SDS011;19224;52.462;16.898;2023-01-29T07:06:08;12.43;;;8.10;;
32872;SDS011;19224;52.462;16.898;2023-01-29T07:08:39;11.83;;;7.40;;
32872;SDS011;19224;52.462;16.898;2023-01-29T07:11:09;13.80;;;8.77;;
32872;SDS011;19224;52.462;16.898;2023-01-29T07:13:40;13.43;;;8.17;;
32872;SDS011;19224;52.462;16.898;2023-01-29T07:16:11;13.43;;;7.80;;
32872;SDS011;19224;52.462;16.898;2023-01-29T07:18:41;15.63;;;7.90;;
32872;SDS011;19224;52.462;16.898;2023-01-29T07:21:12;14.03;;;8.27;;
32872;SDS011;19224;52.462;16.898;2023-01-29T07:23:43;15.23;;;8.40;;
32872;SDS011;19224;52.462;16.898;2023-01-29T07:26:13;15.40;;;8.47;;
32872;SDS011;19224;52.462;16.898;2023-01-29T07:28:44;14.97;;;8.60;;
32872;SDS011;19224;52.462;16.898;2023-01-29T07:31:15;13.77;;;9.07;;
32872;SDS011;19224;52.462;16.898;2023-01-29T07:33:45;14.93;;;8.70;;
32872;SDS011;19224;52.462;16.898;2023-01-29T07:36:16;13.77;;;8.47;;
32872;SDS011;19224;52.462;16.898;2023-01-29T07:38:50;16.42;;;8.48;;
32872;SDS011;19224;52.462;16.898;2023-01-29T07:41:21;18.17;;;9.30;;
32872;SDS011;19224;52.462;16.898;2023-01-29T07:43:51;17.52;;;9.28;;
32872;SDS011;19224;52.462;16.898;2023-01-29T07:46:22;15.03;;;8.80;;
32872;SDS011;19224;52.462;16.898;2023-01-29T07:48:52;15.72;;;8.65;;
32872;SDS011;19224;52.462;16.898;2023-01-29T07:51:23;18.53;;;10.27;;
32872;SDS011;19224;52.462;16.898;2023-01-29T07:53:54;17.17;;;9.25;;
32872;SDS011;19224;52.462;16.898;2023-01-29T07:56:24;15.90;;;9.60;;
32872;SDS011;19224;52.462;16.898;2023-01-29T07:58:55;16.50;;;10.00;;
32872;SDS011;19224;52.462;16.898;2023-01-29T08:01:25;17.27;;;10.53;;
32872;SDS011;19224;52.462;16.898;2023-01-29T08:03:56;20.85;;;9.98;;
32872;SDS011;19224;52.462;16.898;2023-01-29T08:06:26;17.63;;;10.10;;
32872;SDS011;19224;52.462;16.898;2023-01-29T08:08:57;19.50;;;10.50;;
32872;SDS011;19224;52.462;16.898;2023-01-29T08:11:28;17.50;;;10.30;;
32872;SDS011;19224;52.462;16.898;2023-01-29T08:13:58;17.83;;;9.70;;
32872;SDS011;19224;52.462;16.898;2023-01-29T08:16:29;16.93;;;10.93;;
32872;SDS011;19224;52.462;16.898;2023-01-29T08:19:02;18.67;;;10.80;;
32872;SDS011;19224;52.462;16.898;2023-01-29T08:21:51;16.73;;;9.60;;
32872;SDS011;19224;52.462;16.898;2023-01-29T08:24:21;16.57;;;9.13;;
32872;SDS011;19224;52.462;16.898;2023-01-29T08:26:52;13.40;;;9.30;;
32872;SDS011;19224;52.462;16.898;2023-01-29T08:29:22;20.20;;;9.50;;
32872;SDS011;19224;52.462;16.898;2023-01-29T08:31:53;18.13;;;9.50;;
32872;SDS011;19224;52.462;16.898;2023-01-29T08:34:24;13.62;;;9.40;;
32872;SDS011;19224;52.462;16.898;2023-01-29T08:36:55;16.70;;;9.63;;
32872;SDS011;19224;52.462;16.898;2023-01-29T08:39:25;17.77;;;10.53;;
32872;SDS011;19224;52.462;16.898;2023-01-29T08:41:56;21.50;;;11.23;;
32872;SDS011;19224;52.462;16.898;2023-01-29T08:44:26;24.87;;;12.60;;
32872;SDS011;19224;52.462;16.898;2023-01-29T08:46:57;21.47;;;11.00;;
32872;SDS011;19224;52.462;16.898;2023-01-29T08:49:28;20.60;;;10.90;;
32872;SDS011;19224;52.462;16.898;2023-01-29T08:51:58;15.37;;;9.53;;
32872;SDS011;19224;52.462;16.898;2023-01-29T08:54:29;14.63;;;9.37;;
32872;SDS011;19224;52.462;16.898;2023-01-29T08:56:59;20.73;;;10.33;;
32872;SDS011;19224;52.462;16.898;2023-01-29T08:59:30;22.80;;;11.83;;
32872;SDS011;19224;52.462;16.898;2023-01-29T09:02:01;21.57;;;11.13;;
32872;SDS011;19224;52.462;16.898;2023-01-29T09:04:31;19.07;;;10.63;;
32872;SDS011;19224;52.462;16.898;2023-01-29T09:07:02;19.33;;;10.37;;
32872;SDS011;19224;52.462;16.898;2023-01-29T09:09:33;18.97;;;10.23;;
32872;SDS011;19224;52.462;16.898;2023-01-29T09:12:04;17.63;;;10.10;;
32872;SDS011;19224;52.462;16.898;2023-01-29T09:14:35;20.57;;;10.53;;
32872;SDS011;19224;52.462;16.898;2023-01-29T09:17:05;17.43;;;10.33;;
32872;SDS011;19224;52.462;16.898;2023-01-29T09:19:36;17.05;;;9.40;;
32872;SDS011;19224;52.462;16.898;2023-01-29T09:22:06;17.33;;;10.93;;
32872;SDS011;19224;52.462;16.898;2023-01-29T09:24:37;17.90;;;10.77;;
32872;SDS011;19224;52.462;16.898;2023-01-29T09:27:08;20.97;;;11.20;;
32872;SDS011;19224;52.462;16.898;2023-01-29T09:29:38;17.80;;;10.83;;
32872;SDS011;19224;52.462;16.898;2023-01-29T09:32:09;18.20;;;11.05;;
32872;SDS011;19224;52.462;16.898;2023-01-29T09:34:40;15.87;;;9.87;;
32872;SDS011;19224;52.462;16.898;2023-01-29T09:37:10;17.77;;;10.27;;
32872;SDS011;19224;52.462;16.898;2023-01-29T09:39:41;18.95;;;10.93;;
32872;SDS011;19224;52.462;16.898;2023-01-29T09:42:17;26.23;;;13.50;;
32872;SDS011;19224;52.462;16.898;2023-01-29T09:47:45;17.87;;;11.20;;
32872;SDS011;19224;52.462;16.898;2023-01-29T09:50:21;15.67;;;9.50;;
32872;SDS011;19224;52.462;16.898;2023-01-29T09:55:38;20.37;;;10.43;;
32872;SDS011;19224;52.462;16.898;2023-01-29T10:12:39;19.67;;;12.00;;
32872;SDS011;19224;52.462;16.898;2023-01-29T10:18:44;22.63;;;11.23;;
32872;SDS011;19224;52.462;16.898;2023-01-29T10:21:51;15.93;;;9.97;;
32872;SDS011;19224;52.462;16.898;2023-01-29T10:25:04;18.83;;;10.57;;
32872;SDS011;19224;52.462;16.898;2023-01-29T10:27:30;17.10;;;10.60;;
32872;SDS011;19224;52.462;16.898;2023-01-29T10:30:03;16.80;;;9.83;;
32872;SDS011;19224;52.462;16.898;2023-01-29T10:32:58;18.90;;;11.07;;
32872;SDS011;19224;52.462;16.898;2023-01-29T10:41:21;21.33;;;10.90;;
32872;SDS011;19224;52.462;16.898;2023-01-29T10:46:59;23.32;;;12.68;;
32872;SDS011;19224;52.462;16.898;2023-01-29T10:53:01;20.73;;;11.27;;
32872;SDS011;19224;52.462;16.898;2023-01-29T10:55:52;16.00;;;10.07;;
32872;SDS011;19224;52.462;16.898;2023-01-29T10:58:49;22.00;;;11.15;;
32872;SDS011;19224;52.462;16.898;2023-01-29T11:01:48;17.70;;;10.13;;
32872;SDS011;19224;52.462;16.898;2023-01-29T11:04:19;22.33;;;10.87;;
32872;SDS011;19224;52.462;16.898;2023-01-29T11:06:50;19.97;;;10.97;;
32872;SDS011;19224;52.462;16.898;2023-01-29T11:12:08;19.73;;;10.77;;
32872;SDS011;19224;52.462;16.898;2023-01-29T11:17:34;23.43;;;11.07;;
32872;SDS011;19224;52.462;16.898;2023-01-29T11:20:07;20.23;;;10.90;;
32872;SDS011;19224;52.462;16.898;2023-01-29T11:22:43;19.83;;;11.20;;
32872;SDS011;19224;52.462;16.898;2023-01-29T11:25:16;24.67;;;11.67;;
32872;SDS011;19224;52.462;16.898;2023-01-29T11:27:52;18.97;;;11.07;;
32872;SDS011;19224;52.462;16.898;2023-01-29T11:30:28;21.00;;;11.73;;
32872;SDS011;19224;52.462;16.898;2023-01-29T11:35:42;18.90;;;11.73;;
32872;SDS011;19224;52.462;16.898;2023-01-29T11:38:18;20.53;;;11.60;;
32872;SDS011;19224;52.462;16.898;2023-01-29T11:41:04;19.50;;;11.30;;
32872;SDS011;19224;52.462;16.898;2023-01-29T11:43:39;19.17;;;10.90;;
32872;SDS011;19224;52.462;16.898;2023-01-29T11:46:11;18.87;;;11.93;;
32872;SDS011;19224;52.462;16.898;2023-01-29T11:48:48;18.83;;;11.23;;
32872;SDS011;19224;52.462;16.898;2023-01-29T11:51:22;19.23;;;11.37;;
32872;SDS011;19224;52.462;16.898;2023-01-29T11:54:00;19.27;;;10.70;;
32872;SDS011;19224;52.462;16.898;2023-01-29T11:56:34;20.43;;;11.80;;
32872;SDS011;19224;52.462;16.898;2023-01-29T11:59:24;21.77;;;12.47;;
32872;SDS011;19224;52.462;16.898;2023-01-29T12:02:28;22.07;;;12.33;;
32872;SDS011;19224;52.462;16.898;2023-01-29T12:07:53;21.73;;;12.60;;
32872;SDS011;19224;52.462;16.898;2023-01-29T12:10:33;21.30;;;12.23;;
32872;SDS011;19224;52.462;16.898;2023-01-29T12:15:46;21.63;;;11.47;;
32872;SDS011;19224;52.462;16.898;2023-01-29T12:18:31;22.05;;;11.50;;
32872;SDS011;19224;52.462;16.898;2023-01-29T12:21:11;23.90;;;12.47;;
32872;SDS011;19224;52.462;16.898;2023-01-29T12:29:50;24.87;;;12.35;;
32872;SDS011;19224;52.462;16.898;2023-01-29T12:32:40;20.73;;;12.00;;
32872;SDS011;19224;52.462;16.898;2023-01-29T12:43:44;31.90;;;17.87;;
32872;SDS011;19224;52.462;16.898;2023-01-29T12:46:22;25.53;;;13.93;;
32872;SDS011;19224;52.462;16.898;2023-01-29T12:49:00;27.22;;;14.58;;
32872;SDS011;19224;52.462;16.898;2023-01-29T12:51:37;27.10;;;15.13;;
32872;SDS011;19224;52.462;16.898;2023-01-29T12:54:12;23.93;;;13.80;;
32872;SDS011;19224;52.462;16.898;2023-01-29T12:56:52;24.23;;;14.43;;
32872;SDS011;19224;52.462;16.898;2023-01-29T12:59:35;20.37;;;12.53;;
32872;SDS011;19224;52.462;16.898;2023-01-29T13:05:18;23.33;;;12.83;;
32872;SDS011;19224;52.462;16.898;2023-01-29T13:08:05;21.80;;;12.40;;
32872;SDS011;19224;52.462;16.898;2023-01-29T13:10:47;21.12;;;11.95;;
32872;SDS011;19224;52.462;16.898;2023-01-29T13:13:35;21.67;;;13.27;;
32872;SDS011;19224;52.462;16.898;2023-01-29T13:16:26;23.18;;;12.98;;
32872;SDS011;19224;52.462;16.898;2023-01-29T13:19:13;19.30;;;12.25;;
32872;SDS011;19224;52.462;16.898;2023-01-29T13:21:40;20.50;;;11.90;;
32872;SDS011;19224;52.462;16.898;2023-01-29T13:24:17;22.40;;;13.08;;
32872;SDS011;19224;52.462;16.898;2023-01-29T13:26:49;21.10;;;12.57;;
32872;SDS011;19224;52.462;16.898;2023-01-29T13:29:25;19.60;;;12.25;;
32872;SDS011;19224;52.462;16.898;2023-01-29T13:31:59;20.43;;;12.33;;
32872;SDS011;19224;52.462;16.898;2023-01-29T13:34:36;20.35;;;12.00;;
32872;SDS011;19224;52.462;16.898;2023-01-29T13:37:21;23.55;;;12.75;;
32872;SDS011;19224;52.462;16.898;2023-01-29T13:39:56;22.50;;;12.97;;
32872;SDS011;19224;52.462;16.898;2023-01-29T13:48:10;20.70;;;12.50;;
32872;SDS011;19224;52.462;16.898;2023-01-29T13:51:03;21.33;;;12.20;;
32872;SDS011;19224;52.462;16.898;2023-01-29T13:53:34;23.73;;;13.70;;
32872;SDS011;19224;52.462;16.898;2023-01-29T13:59:03;23.13;;;13.07;;
32872;SDS011;19224;52.462;16.898;2023-01-29T14:04:24;20.25;;;12.03;;
32872;SDS011;19224;52.462;16.898;2023-01-29T14:06:58;18.73;;;12.18;;
32872;SDS011;19224;52.462;16.898;2023-01-29T14:09:31;22.85;;;13.20;;
32872;SDS011;19224;52.462;16.898;2023-01-29T14:15:12;21.90;;;12.50;;
32872;SDS011;19224;52.462;16.898;2023-01-29T14:17:53;22.90;;;13.13;;
32872;SDS011;19224;52.462;16.898;2023-01-29T14:20:48;20.83;;;12.80;;
32872;SDS011;19224;52.462;16.898;2023-01-29T14:26:25;22.55;;;13.18;;
32872;SDS011;19224;52.462;16.898;2023-01-29T14:34:29;23.50;;;14.10;;
32872;SDS011;19224;52.462;16.898;2023-01-29T14:37:03;22.37;;;13.18;;
32872;SDS011;19224;52.462;16.898;2023-01-29T14:39:49;20.68;;;12.75;;
32872;SDS011;19224;52.462;16.898;2023-01-29T14:42:38;24.12;;;13.50;;
32872;SDS011;19224;52.462;16.898;2023-01-29T14:45:24;24.25;;;13.40;;
32872;SDS011;19224;52.462;16.898;2023-01-29T14:50:40;24.27;;;13.93;;
32872;SDS011;19224;52.462;16.898;2023-01-29T14:56:17;23.73;;;14.10;;
32872;SDS011;19224;52.462;16.898;2023-01-29T14:58:51;23.83;;;13.45;;
32872;SDS011;19224;52.462;16.898;2023-01-29T15:01:42;23.20;;;12.95;;
32872;SDS011;19224;52.462;16.898;2023-01-29T15:04:23;22.60;;;13.72;;
32872;SDS011;19224;52.462;16.898;2023-01-29T15:09:51;20.57;;;12.67;;
32872;SDS011;19224;52.462;16.898;2023-01-29T15:18:28;25.93;;;14.07;;
32872;SDS011;19224;52.462;16.898;2023-01-29T15:21:13;18.75;;;12.10;;
32872;SDS011;19224;52.462;16.898;2023-01-29T15:23:46;19.30;;;12.07;;
32872;SDS011;19224;52.462;16.898;2023-01-29T15:26:19;21.97;;;11.97;;
32872;SDS011;19224;52.462;16.898;2023-01-29T15:28:55;18.50;;;11.73;;
32872;SDS011;19224;52.462;16.898;2023-01-29T15:31:29;22.75;;;12.68;;
32872;SDS011;19224;52.462;16.898;2023-01-29T15:34:00;21.40;;;13.33;;
32872;SDS011;19224;52.462;16.898;2023-01-29T15:36:35;27.30;;;16.12;;
32872;SDS011;19224;52.462;16.898;2023-01-29T15:39:23;26.10;;;14.18;;
32872;SDS011;19224;52.462;16.898;2023-01-29T15:42:18;28.13;;;16.40;;
32872;SDS011;19224;52.462;16.898;2023-01-29T15:44:43;24.25;;;15.30;;
32872;SDS011;19224;52.462;16.898;2023-01-29T15:47:14;25.55;;;14.50;;
32872;SDS011;19224;52.462;16.898;2023-01-29T15:49:45;25.03;;;14.47;;
32872;SDS011;19224;52.462;16.898;2023-01-29T15:52:18;26.48;;;14.03;;
32872;SDS011;19224;52.462;16.898;2023-01-29T15:54:51;26.15;;;13.50;;
32872;SDS011;19224;52.462;16.898;2023-01-29T15:57:25;27.58;;;14.83;;
32872;SDS011;19224;52.462;16.898;2023-01-29T16:00:07;25.77;;;14.23;;
32872;SDS011;19224;52.462;16.898;2023-01-29T16:02:51;28.02;;;14.87;;
32872;SDS011;19224;52.462;16.898;2023-01-29T16:05:24;26.03;;;14.43;;
32872;SDS011;19224;52.462;16.898;2023-01-29T16:07:59;24.98;;;14.15;;
32872;SDS011;19224;52.462;16.898;2023-01-29T16:10:31;28.93;;;14.93;;
32872;SDS011;19224;52.462;16.898;2023-01-29T16:13:02;21.95;;;13.25;;
32872;SDS011;19224;52.462;16.898;2023-01-29T16:15:35;23.60;;;14.35;;
32872;SDS011;19224;52.462;16.898;2023-01-29T16:18:19;25.07;;;14.50;;
32872;SDS011;19224;52.462;16.898;2023-01-29T16:20:59;21.23;;;12.73;;
32872;SDS011;19224;52.462;16.898;2023-01-29T16:23:58;25.70;;;14.78;;
32872;SDS011;19224;52.462;16.898;2023-01-29T16:26:41;24.93;;;13.60;;
32872;SDS011;19224;52.462;16.898;2023-01-29T16:29:23;24.87;;;14.27;;
32872;SDS011;19224;52.462;16.898;2023-01-29T16:31:52;20.30;;;12.95;;
32872;SDS011;19224;52.462;16.898;2023-01-29T16:34:30;24.07;;;13.72;;
32872;SDS011;19224;52.462;16.898;2023-01-29T16:37:05;23.07;;;14.00;;
32872;SDS011;19224;52.462;16.898;2023-01-29T16:39:42;23.53;;;13.30;;
32872;SDS011;19224;52.462;16.898;2023-01-29T16:44:53;26.97;;;15.03;;
32872;SDS011;19224;52.462;16.898;2023-01-29T16:47:30;28.75;;;15.70;;
32872;SDS011;19224;52.462;16.898;2023-01-29T16:53:11;28.90;;;16.00;;
32872;SDS011;19224;52.462;16.898;2023-01-29T16:55:50;31.13;;;16.57;;
32872;SDS011;19224;52.462;16.898;2023-01-29T16:58:24;24.27;;;14.55;;
32872;SDS011;19224;52.462;16.898;2023-01-29T17:00:58;25.40;;;15.37;;
32872;SDS011;19224;52.462;16.898;2023-01-29T17:03:34;29.20;;;14.97;;
32872;SDS011;19224;52.462;16.898;2023-01-29T17:06:17;25.33;;;15.03;;
32872;SDS011;19224;52.462;16.898;2023-01-29T17:08:47;23.40;;;14.20;;
32872;SDS011;19224;52.462;16.898;2023-01-29T17:11:26;26.23;;;15.00;;
32872;SDS011;19224;52.462;16.898;2023-01-29T17:14:07;27.27;;;15.10;;
32872;SDS011;19224;52.462;16.898;2023-01-29T17:16:49;30.27;;;17.47;;
32872;SDS011;19224;52.462;16.898;2023-01-29T17:19:25;29.97;;;15.57;;
32872;SDS011;19224;52.462;16.898;2023-01-29T17:21:57;25.80;;;15.03;;
32872;SDS011;19224;52.462;16.898;2023-01-29T17:24:29;25.33;;;13.70;;
32872;SDS011;19224;52.462;16.898;2023-01-29T17:27:00;35.83;;;17.97;;
32872;SDS011;19224;52.462;16.898;2023-01-29T17:29:31;25.03;;;15.80;;
32872;SDS011;19224;52.462;16.898;2023-01-29T17:32:03;28.47;;;16.27;;
32872;SDS011;19224;52.462;16.898;2023-01-29T17:34:34;32.83;;;16.20;;
32872;SDS011;19224;52.462;16.898;2023-01-29T17:37:05;28.80;;;16.25;;
32872;SDS011;19224;52.462;16.898;2023-01-29T17:39:38;34.53;;;18.30;;
32872;SDS011;19224;52.462;16.898;2023-01-29T17:42:11;28.63;;;16.47;;
32872;SDS011;19224;52.462;16.898;2023-01-29T17:44:43;25.37;;;14.68;;